Terminal Aerodrome Forecast
Issued by NWS

Home | Current Version | Previous Version | Text Only | Print | Product List | Glossary On
Versions: 1 2 3 4 5 6 7 8 9 10 11 12 13 14 15 16 17 18 19 20 21 22 23 24 25 26 27 28 29 30
441
FTUS43 KGRB 121128
TAFRHI
TAF
KRHI 121128Z 1212/1312 30013G21KT P6SM BKN035
      TEMPO 1212/1216 6SM -SN BKN025
     FM130100 29007KT P6SM BKN035=

USA.gov is the U.S. government's official web portal to all federal, state and local government web resources and services.